AirNav   ProFlight Series 2 Aviation Headset
 
 409 users online  

24VA Cherrystone Airport
Cheriton, Virginia, USA

GOING TO CHERITON?


FAA INFORMATION EFFECTIVE 16 JULY 2020

Location

FAA Identifier: 24VA
Lat/Long: 37-17-17.4960N 075-59-58.7590W
37-17.291600N 075-59.979317W
37.2881933,-75.9996553
(estimated)
Elevation: 14 ft. / 4.3 m (surveyed)
Variation: 09W (1985)
From city: 1 mile W of CHERITON, VA
Time zone: UTC -4 (UTC -5 during Standard Time)
Zip code: 23310

Airport Operations

Airport use: Private use. Permission required prior to landing
Activation date: 10/1984
Control tower: no
ARTCC: WASHINGTON CENTER
FSS: LEESBURG FLIGHT SERVICE STATION
Attendance: UNATNDD
Wind indicator: yes
Segmented circle: no

Nearby radio navigation aids

VOR radial/distance  VOR name  Freq  Var
CCVr192/3.6CAPE CHARLES VORTAC112.2010W
ORFr029/25.6NORFOLK VORTAC116.9007W
HCMr113/35.3HARCUM VORTAC108.8007W

Airport Services

Runway Information

Runway 9/27

Dimensions: 2000 x 75 ft. / 610 x 23 m
Surface: turf
RUNWAY 9  RUNWAY 27
Traffic pattern: rightleft
Obstructions: nonepline, 500 ft. from runway

Airport Ownership and Management from official FAA records

Ownership: Privately-owned
Owner: GRANVILLE F. HOGG
PO BOX 117
CHERITON, VA 23316
Phone 757-630-2856
Manager: GRANVILLE F. HOGG
PO BOX 117
CHERITON, VA 23316
Phone 757-630-2856

Airport Operational Statistics

Aircraft operations: 6/year
100% local general aviation

Additional Remarks

FOR CD CTC NORFOLK APCH AT 757-464-0757.

Instrument Procedures

There are no published instrument procedures at 24VA.

Some nearby airports with instrument procedures:

KLFI - Langley Air Force Base (21 nm SW)
KMFV - Accomack County Airport (24 nm NE)
KNGU - Norfolk Naval Station (Chambers Field) (25 nm SW)
KPHF - Newport News/Williamsburg International Airport (25 nm W)
KORF - Norfolk International Airport (26 nm S)
 
Loc | Ops | Rwys | IFR | FBO | Links
Com | Nav | Svcs | Stats | Notes
Area around 24VA (Cherrystone Airport)
 
Road maps at: MapQuest Bing Google
 
Aerial photo
WARNING: Photo may not be current or correct
Aerial photo of 24VA (Cherrystone Airport)
Photo by Jens Reinke
Photo taken 05-May-2007

Do you have a better or more recent aerial photo of Cherrystone Airport that you would like to share? If so, please send us your photo.

 
Sectional chart

 
Airport distance calculator
Flying to Cherrystone Airport? Find the distance to fly.

From to 24VA

Sunrise and sunset
Times for 06-Aug-2020
 Local
(UTC-4)
 Zulu
(UTC)
Morning civil twilight05:4609:46
Sunrise06:1410:14
Sunset20:0500:05
Evening civil twilight20:3300:33

Current date and time
Zulu (UTC)  06-Aug-2020 09:19:32
Local (UTC-4)  06-Aug-2020 05:19:32
 
METAR
KLFI 
22nm SW 
060756Z AUTO 00000KT 10SM CLR 24/24 A3004 RMK AO2 SLP179 T02410241 $
KMFV 
23nm NE 
060835Z AUTO 15003KT 7SM CLR 24/23 A3004 RMK AO2 LTG DSNT SE T02410225
KORF 
25nm S 
060851Z 18004KT 10SM CLR 26/24 A3004 RMK AO2 SLP172 T02610244 53001
KPHF 
26nm W 
060854Z AUTO 20006KT 10SM FEW120 26/23 A3005 RMK AO2 SLP173 T02610228 55000
KNGU 
26nm SW 
060859Z 22003KT 10SM FEW038 SCT170 BKN250 26/23 A3006 RMK AO2 SLP178 T02610233 53001 $
KNTU 
28nm S 
060856Z 28004KT 10SM FEW030 SCT280 24/23 A3004 RMK AO2 SLP174 T02440228 51001
KW75 
28nm NW 
060855Z AUTO 21003KT 10SM BKN065 23/23 A3004 RMK AO1 T02310231
KFAF 
31nm W 
060856Z AUTO 19004KT 10SM -DZ FEW070 SCT110 26/25 A3002 RMK AO2 DZB00E29DZB52 SLP169 P0000 60000 T02580245 55001 $
KJGG 
34nm W 
060855Z AUTO 00000KT 7SM 25/25 A3005 RMK AO1
KNFE 
36nm S 
060856Z AUTO 00000KT 8SM CLR 24/24 A3005 RMK AO2 SLP177 T02390239 52002
TAF
KLFI 
22nm SW 
052300Z 0523/0623 21009KT 9999 BKN035 BKN120 QNH2997INS TEMPO 0523/0601 26012G18KT 6000 -TSRA SCT040CB BKN050 BECMG 0603/0604 VRB06KT 9999 BKN030 QNH2995INS TEMPO 0615/0618 23010G15KT 8000 -TSRA BKN020CB BECMG 0617/0618 23009KT 9000 -SHRA BKN020 QNH2995INS TX29/0523Z TN25/0609Z LAST NO AMDS AFT 0523 NEXT 0609
KORF 
25nm S 
060520Z 0606/0706 18004KT P6SM BKN150 FM061400 13006KT P6SM BKN030 FM061700 12008KT P6SM VCTS BKN040CB FM070000 16004KT P6SM BKN100
KPHF 
26nm W 
060520Z 0606/0706 VRB03KT P6SM BKN150 FM061400 16005KT P6SM BKN030 FM061700 13007KT P6SM VCTS BKN030CB FM070000 13006KT P6SM BKN080
KNGU 
26nm SW 
0607/0707 VRB05KT 9999 FEW040 SCT250 QNH2998INS FM061000 VRB05KT 9000 BR VCSH BKN030 BKN250 QNH3000INS BECMG 0616/0618 15010KT 9999 VCTS SCT040CB BKN100 QNH2995INS TEMPO 0616/0622 VRB15G25KT 6000 TSRA BKN010CB BKN050 FM070200 22008KT 9999 VCSH FEW030 QNH2998INS T24/0610Z T30/0619Z FN00223
NOTAMs
Click for the latest NOTAMs
NOTAMs are issued by the DoD/FAA and will open in a separate window not controlled by AirNav.

 

 
 

Would you like to see your business listed on this page?

 If your business provides an interesting product or service to pilots, flight crews, aircraft, or users of the Cherrystone Airport, you should consider listing it here.  To start the listing process, click on the button below
 
Add a business
 

Other Pages about Cherrystone Airport

Update a link
 
Copyright © AirNav, LLC. All rights reserved. Privacy Policy  Contact